6A2

Griffin-Spalding County Airport

Griffin, Georgia, USA
METAR K6A2 210955Z AUTO 17003KT 10SM OVC100 22/21 A2991 RMK AO2 LTG DSNT N
Observed Flight Rules
Jul-21 @ 09:55 UTC (6 minutes ago) Visual Flight Rules
Wind Visibility Clouds
170° at 3 knots 10 miles
  • Overcast at 10,000' AGL
Temperatures Readings
Current 22°C / 72°F
Dewpoint 21°C / 70°F
Humidity 94%
Altimeter 29.91" Hg
Pressure 1013 hPa
Elevation 292
METAR K6A2 210955Z AUTO 17003KT 10SM OVC100 22/21 A2991 RMK AO2 LTG DSNT N
Observed Flight Rules
Jul-21 @ 09:55 UTC
(6 minutes ago)
VFR
Wind Visibility
170° at 3 knots 10 miles
Clouds
  • Overcast at 10,000' AGL
Temperature Dewpoint
22°C / 72°F 21°C / 70°F
Humidity Altimeter Pressure
94% 29.91" Hg 1013 hPa